sensor_id;sensor_type;location;lat;lon;timestamp;P1;durP1;ratioP1;P2;durP2;ratioP2
52368;SDS011;38298;50.346;3.526;2023-03-01T00:00:37;16.80;;;8.80;;
52368;SDS011;38298;50.346;3.526;2023-03-01T00:03:03;14.00;;;8.18;;
52368;SDS011;38298;50.346;3.526;2023-03-01T00:05:29;16.08;;;7.93;;
52368;SDS011;38298;50.346;3.526;2023-03-01T00:07:55;14.40;;;7.75;;
52368;SDS011;38298;50.346;3.526;2023-03-01T00:10:21;15.35;;;7.28;;
52368;SDS011;38298;50.346;3.526;2023-03-01T00:12:47;15.57;;;7.90;;
52368;SDS011;38298;50.346;3.526;2023-03-01T00:15:13;19.52;;;7.88;;
52368;SDS011;38298;50.346;3.526;2023-03-01T00:17:39;15.18;;;7.60;;
52368;SDS011;38298;50.346;3.526;2023-03-01T00:20:06;13.13;;;7.47;;
52368;SDS011;38298;50.346;3.526;2023-03-01T00:22:35;13.13;;;7.17;;
52368;SDS011;38298;50.346;3.526;2023-03-01T00:25:02;12.60;;;6.90;;
52368;SDS011;38298;50.346;3.526;2023-03-01T00:27:29;13.32;;;7.35;;
52368;SDS011;38298;50.346;3.526;2023-03-01T00:29:55;12.82;;;6.93;;
52368;SDS011;38298;50.346;3.526;2023-03-01T00:32:21;12.07;;;7.20;;
52368;SDS011;38298;50.346;3.526;2023-03-01T00:34:47;15.05;;;7.70;;
52368;SDS011;38298;50.346;3.526;2023-03-01T00:37:20;13.05;;;7.15;;
52368;SDS011;38298;50.346;3.526;2023-03-01T00:39:46;13.18;;;7.53;;
52368;SDS011;38298;50.346;3.526;2023-03-01T00:42:12;12.80;;;7.40;;
52368;SDS011;38298;50.346;3.526;2023-03-01T00:44:38;15.73;;;7.47;;
52368;SDS011;38298;50.346;3.526;2023-03-01T00:47:04;9.45;;;6.93;;
52368;SDS011;38298;50.346;3.526;2023-03-01T00:49:30;14.88;;;7.00;;
52368;SDS011;38298;50.346;3.526;2023-03-01T00:51:56;13.50;;;7.38;;
52368;SDS011;38298;50.346;3.526;2023-03-01T00:54:22;12.65;;;7.57;;
52368;SDS011;38298;50.346;3.526;2023-03-01T00:56:49;14.75;;;7.75;;
52368;SDS011;38298;50.346;3.526;2023-03-01T00:59:15;15.18;;;7.78;;
52368;SDS011;38298;50.346;3.526;2023-03-01T01:01:41;12.85;;;7.18;;
52368;SDS011;38298;50.346;3.526;2023-03-01T01:04:08;12.43;;;7.53;;
52368;SDS011;38298;50.346;3.526;2023-03-01T01:06:41;12.07;;;6.45;;
52368;SDS011;38298;50.346;3.526;2023-03-01T01:09:08;13.95;;;7.40;;
52368;SDS011;38298;50.346;3.526;2023-03-01T01:11:42;13.73;;;7.53;;
52368;SDS011;38298;50.346;3.526;2023-03-01T01:14:08;13.75;;;7.25;;
52368;SDS011;38298;50.346;3.526;2023-03-01T01:16:34;12.80;;;7.25;;
52368;SDS011;38298;50.346;3.526;2023-03-01T01:19:01;11.38;;;7.80;;
52368;SDS011;38298;50.346;3.526;2023-03-01T01:21:27;13.05;;;7.57;;
52368;SDS011;38298;50.346;3.526;2023-03-01T01:23:53;14.40;;;7.35;;
52368;SDS011;38298;50.346;3.526;2023-03-01T01:26:21;13.70;;;7.72;;
52368;SDS011;38298;50.346;3.526;2023-03-01T01:28:47;11.30;;;7.88;;
52368;SDS011;38298;50.346;3.526;2023-03-01T01:31:14;12.27;;;7.55;;
52368;SDS011;38298;50.346;3.526;2023-03-01T01:33:40;15.65;;;8.43;;
52368;SDS011;38298;50.346;3.526;2023-03-01T01:36:07;18.05;;;9.02;;
52368;SDS011;38298;50.346;3.526;2023-03-01T01:38:33;11.82;;;7.30;;
52368;SDS011;38298;50.346;3.526;2023-03-01T01:41:00;9.93;;;6.88;;
52368;SDS011;38298;50.346;3.526;2023-03-01T01:43:45;13.15;;;7.03;;
52368;SDS011;38298;50.346;3.526;2023-03-01T01:46:23;11.82;;;7.30;;
52368;SDS011;38298;50.346;3.526;2023-03-01T01:48:53;10.85;;;7.00;;
52368;SDS011;38298;50.346;3.526;2023-03-01T01:51:21;12.68;;;7.18;;
52368;SDS011;38298;50.346;3.526;2023-03-01T01:53:50;15.38;;;7.43;;
52368;SDS011;38298;50.346;3.526;2023-03-01T01:56:17;12.27;;;7.35;;
52368;SDS011;38298;50.346;3.526;2023-03-01T01:58:44;11.13;;;6.60;;
52368;SDS011;38298;50.346;3.526;2023-03-01T02:01:12;11.93;;;7.38;;
52368;SDS011;38298;50.346;3.526;2023-03-01T02:03:38;14.95;;;7.63;;
52368;SDS011;38298;50.346;3.526;2023-03-01T02:06:28;11.23;;;7.45;;
52368;SDS011;38298;50.346;3.526;2023-03-01T02:08:54;10.45;;;7.45;;
52368;SDS011;38298;50.346;3.526;2023-03-01T02:11:22;10.85;;;7.38;;
52368;SDS011;38298;50.346;3.526;2023-03-01T02:13:48;14.32;;;7.60;;
52368;SDS011;38298;50.346;3.526;2023-03-01T02:16:15;13.75;;;6.97;;
52368;SDS011;38298;50.346;3.526;2023-03-01T02:18:41;11.02;;;7.18;;
52368;SDS011;38298;50.346;3.526;2023-03-01T02:23:35;11.25;;;6.95;;
52368;SDS011;38298;50.346;3.526;2023-03-01T02:30:59;12.75;;;7.68;;
52368;SDS011;38298;50.346;3.526;2023-03-01T02:33:45;14.48;;;7.70;;
52368;SDS011;38298;50.346;3.526;2023-03-01T02:36:20;11.73;;;7.28;;
52368;SDS011;38298;50.346;3.526;2023-03-01T02:38:48;13.93;;;7.70;;
52368;SDS011;38298;50.346;3.526;2023-03-01T02:41:15;12.43;;;7.88;;
52368;SDS011;38298;50.346;3.526;2023-03-01T02:43:42;13.05;;;7.75;;
52368;SDS011;38298;50.346;3.526;2023-03-01T02:46:13;19.05;;;7.82;;
52368;SDS011;38298;50.346;3.526;2023-03-01T02:48:46;12.52;;;7.88;;
52368;SDS011;38298;50.346;3.526;2023-03-01T02:51:22;13.18;;;7.97;;
52368;SDS011;38298;50.346;3.526;2023-03-01T02:56:29;14.20;;;7.68;;
52368;SDS011;38298;50.346;3.526;2023-03-01T02:58:55;18.98;;;8.00;;
52368;SDS011;38298;50.346;3.526;2023-03-01T03:01:25;12.18;;;7.47;;
52368;SDS011;38298;50.346;3.526;2023-03-01T03:04:01;13.00;;;7.95;;
52368;SDS011;38298;50.346;3.526;2023-03-01T03:06:27;15.13;;;7.85;;
52368;SDS011;38298;50.346;3.526;2023-03-01T03:08:54;13.05;;;7.70;;
52368;SDS011;38298;50.346;3.526;2023-03-01T03:11:20;13.70;;;7.45;;
52368;SDS011;38298;50.346;3.526;2023-03-01T03:13:46;15.18;;;7.45;;
52368;SDS011;38298;50.346;3.526;2023-03-01T03:16:13;14.68;;;7.72;;
52368;SDS011;38298;50.346;3.526;2023-03-01T03:18:39;14.80;;;7.30;;
52368;SDS011;38298;50.346;3.526;2023-03-01T03:21:07;15.13;;;7.68;;
52368;SDS011;38298;50.346;3.526;2023-03-01T03:23:37;17.40;;;7.95;;
52368;SDS011;38298;50.346;3.526;2023-03-01T03:26:03;14.57;;;8.10;;
52368;SDS011;38298;50.346;3.526;2023-03-01T03:28:30;14.80;;;7.28;;
52368;SDS011;38298;50.346;3.526;2023-03-01T03:30:56;15.52;;;8.20;;
52368;SDS011;38298;50.346;3.526;2023-03-01T03:33:23;14.07;;;8.00;;
52368;SDS011;38298;50.346;3.526;2023-03-01T03:35:50;14.32;;;8.13;;
52368;SDS011;38298;50.346;3.526;2023-03-01T03:38:17;11.70;;;7.22;;
52368;SDS011;38298;50.346;3.526;2023-03-01T03:43:29;10.77;;;7.13;;
52368;SDS011;38298;50.346;3.526;2023-03-01T03:45:55;14.75;;;7.55;;
52368;SDS011;38298;50.346;3.526;2023-03-01T03:48:24;13.40;;;7.95;;
52368;SDS011;38298;50.346;3.526;2023-03-01T03:50:51;11.70;;;7.00;;
52368;SDS011;38298;50.346;3.526;2023-03-01T03:53:18;14.23;;;7.72;;
52368;SDS011;38298;50.346;3.526;2023-03-01T03:55:44;11.98;;;7.57;;
52368;SDS011;38298;50.346;3.526;2023-03-01T03:58:14;12.27;;;7.07;;
52368;SDS011;38298;50.346;3.526;2023-03-01T04:00:42;15.57;;;7.97;;
52368;SDS011;38298;50.346;3.526;2023-03-01T04:03:09;14.60;;;7.95;;
52368;SDS011;38298;50.346;3.526;2023-03-01T04:05:35;18.17;;;7.28;;
52368;SDS011;38298;50.346;3.526;2023-03-01T04:08:02;11.95;;;8.15;;
52368;SDS011;38298;50.346;3.526;2023-03-01T04:10:32;16.02;;;8.27;;
52368;SDS011;38298;50.346;3.526;2023-03-01T04:15:25;14.18;;;7.13;;
52368;SDS011;38298;50.346;3.526;2023-03-01T04:17:52;15.43;;;7.97;;
52368;SDS011;38298;50.346;3.526;2023-03-01T04:20:20;13.77;;;7.53;;
52368;SDS011;38298;50.346;3.526;2023-03-01T04:25:52;10.02;;;7.38;;
52368;SDS011;38298;50.346;3.526;2023-03-01T04:30:47;14.73;;;7.43;;
52368;SDS011;38298;50.346;3.526;2023-03-01T04:33:15;14.43;;;7.60;;
52368;SDS011;38298;50.346;3.526;2023-03-01T04:35:41;15.73;;;8.05;;
52368;SDS011;38298;50.346;3.526;2023-03-01T04:38:08;13.85;;;7.85;;
52368;SDS011;38298;50.346;3.526;2023-03-01T04:40:34;16.77;;;8.38;;
52368;SDS011;38298;50.346;3.526;2023-03-01T04:43:00;15.18;;;8.48;;
52368;SDS011;38298;50.346;3.526;2023-03-01T04:45:27;15.80;;;8.27;;
52368;SDS011;38298;50.346;3.526;2023-03-01T04:47:53;13.52;;;7.25;;
52368;SDS011;38298;50.346;3.526;2023-03-01T04:50:19;14.68;;;8.52;;
52368;SDS011;38298;50.346;3.526;2023-03-01T04:52:47;16.13;;;7.18;;
52368;SDS011;38298;50.346;3.526;2023-03-01T04:55:13;13.70;;;6.97;;
52368;SDS011;38298;50.346;3.526;2023-03-01T04:57:40;15.55;;;8.55;;
52368;SDS011;38298;50.346;3.526;2023-03-01T05:00:08;14.40;;;7.82;;
52368;SDS011;38298;50.346;3.526;2023-03-01T05:05:19;13.32;;;7.82;;
52368;SDS011;38298;50.346;3.526;2023-03-01T05:07:45;14.32;;;7.88;;
52368;SDS011;38298;50.346;3.526;2023-03-01T05:10:11;14.45;;;7.95;;
52368;SDS011;38298;50.346;3.526;2023-03-01T05:12:37;13.85;;;7.22;;
52368;SDS011;38298;50.346;3.526;2023-03-01T05:15:03;14.75;;;8.02;;
52368;SDS011;38298;50.346;3.526;2023-03-01T05:17:32;12.90;;;8.30;;
52368;SDS011;38298;50.346;3.526;2023-03-01T05:19:58;15.57;;;8.38;;
52368;SDS011;38298;50.346;3.526;2023-03-01T05:22:25;12.20;;;8.02;;
52368;SDS011;38298;50.346;3.526;2023-03-01T05:24:51;12.68;;;7.80;;
52368;SDS011;38298;50.346;3.526;2023-03-01T05:27:19;15.35;;;8.10;;
52368;SDS011;38298;50.346;3.526;2023-03-01T05:29:47;16.00;;;8.20;;
52368;SDS011;38298;50.346;3.526;2023-03-01T05:32:13;15.05;;;8.55;;
52368;SDS011;38298;50.346;3.526;2023-03-01T05:34:40;12.52;;;7.63;;
52368;SDS011;38298;50.346;3.526;2023-03-01T05:37:07;12.93;;;8.43;;
52368;SDS011;38298;50.346;3.526;2023-03-01T05:39:33;17.40;;;7.82;;
52368;SDS011;38298;50.346;3.526;2023-03-01T05:42:00;13.32;;;7.85;;
52368;SDS011;38298;50.346;3.526;2023-03-01T05:44:27;18.00;;;8.73;;
52368;SDS011;38298;50.346;3.526;2023-03-01T05:46:54;13.18;;;7.65;;
52368;SDS011;38298;50.346;3.526;2023-03-01T05:49:20;13.57;;;8.13;;
52368;SDS011;38298;50.346;3.526;2023-03-01T05:51:49;14.82;;;8.00;;
52368;SDS011;38298;50.346;3.526;2023-03-01T05:54:16;14.10;;;8.07;;
52368;SDS011;38298;50.346;3.526;2023-03-01T05:56:42;13.90;;;7.90;;
52368;SDS011;38298;50.346;3.526;2023-03-01T05:59:08;15.63;;;8.05;;
52368;SDS011;38298;50.346;3.526;2023-03-01T06:01:34;16.33;;;8.60;;
52368;SDS011;38298;50.346;3.526;2023-03-01T06:04:01;13.85;;;8.65;;
52368;SDS011;38298;50.346;3.526;2023-03-01T06:06:27;17.48;;;8.13;;
52368;SDS011;38298;50.346;3.526;2023-03-01T06:08:53;14.95;;;8.38;;
52368;SDS011;38298;50.346;3.526;2023-03-01T06:11:20;13.85;;;8.30;;
52368;SDS011;38298;50.346;3.526;2023-03-01T06:13:46;14.80;;;8.52;;
52368;SDS011;38298;50.346;3.526;2023-03-01T06:16:12;17.60;;;8.80;;
52368;SDS011;38298;50.346;3.526;2023-03-01T06:18:39;15.23;;;8.73;;
52368;SDS011;38298;50.346;3.526;2023-03-01T06:21:05;17.33;;;8.43;;
52368;SDS011;38298;50.346;3.526;2023-03-01T06:23:32;13.23;;;8.18;;
52368;SDS011;38298;50.346;3.526;2023-03-01T06:25:58;20.05;;;9.02;;
52368;SDS011;38298;50.346;3.526;2023-03-01T06:28:25;16.67;;;8.88;;
52368;SDS011;38298;50.346;3.526;2023-03-01T06:30:51;19.48;;;9.82;;
52368;SDS011;38298;50.346;3.526;2023-03-01T06:33:17;14.63;;;8.63;;
52368;SDS011;38298;50.346;3.526;2023-03-01T06:35:45;15.30;;;9.43;;
52368;SDS011;38298;50.346;3.526;2023-03-01T06:38:11;22.15;;;9.02;;
52368;SDS011;38298;50.346;3.526;2023-03-01T06:40:40;17.35;;;9.32;;
52368;SDS011;38298;50.346;3.526;2023-03-01T06:43:06;17.42;;;9.10;;
52368;SDS011;38298;50.346;3.526;2023-03-01T06:45:32;16.48;;;9.02;;
52368;SDS011;38298;50.346;3.526;2023-03-01T06:48:05;22.30;;;10.25;;
52368;SDS011;38298;50.346;3.526;2023-03-01T06:50:32;16.55;;;9.18;;
52368;SDS011;38298;50.346;3.526;2023-03-01T06:52:58;20.13;;;8.80;;
52368;SDS011;38298;50.346;3.526;2023-03-01T06:55:24;17.55;;;9.48;;
52368;SDS011;38298;50.346;3.526;2023-03-01T06:57:54;22.00;;;9.57;;
52368;SDS011;38298;50.346;3.526;2023-03-01T07:00:21;17.70;;;9.45;;
52368;SDS011;38298;50.346;3.526;2023-03-01T07:02:47;19.35;;;9.80;;
52368;SDS011;38298;50.346;3.526;2023-03-01T07:05:13;17.90;;;9.32;;
52368;SDS011;38298;50.346;3.526;2023-03-01T07:07:39;15.27;;;9.02;;
52368;SDS011;38298;50.346;3.526;2023-03-01T07:10:05;18.48;;;9.77;;
52368;SDS011;38298;50.346;3.526;2023-03-01T07:12:32;15.73;;;8.55;;
52368;SDS011;38298;50.346;3.526;2023-03-01T07:14:58;17.67;;;9.77;;
52368;SDS011;38298;50.346;3.526;2023-03-01T07:17:24;20.50;;;9.75;;
52368;SDS011;38298;50.346;3.526;2023-03-01T07:19:50;15.32;;;8.65;;
52368;SDS011;38298;50.346;3.526;2023-03-01T07:22:16;20.42;;;9.82;;
52368;SDS011;38298;50.346;3.526;2023-03-01T07:24:42;19.52;;;10.10;;
52368;SDS011;38298;50.346;3.526;2023-03-01T07:27:09;17.23;;;9.30;;
52368;SDS011;38298;50.346;3.526;2023-03-01T07:29:35;16.75;;;9.50;;
52368;SDS011;38298;50.346;3.526;2023-03-01T07:32:04;16.95;;;8.18;;
52368;SDS011;38298;50.346;3.526;2023-03-01T07:34:30;20.60;;;9.43;;
52368;SDS011;38298;50.346;3.526;2023-03-01T07:36:56;20.27;;;8.82;;
52368;SDS011;38298;50.346;3.526;2023-03-01T07:39:22;24.17;;;9.75;;
52368;SDS011;38298;50.346;3.526;2023-03-01T07:41:48;16.25;;;9.30;;
52368;SDS011;38298;50.346;3.526;2023-03-01T07:44:15;14.35;;;8.65;;
52368;SDS011;38298;50.346;3.526;2023-03-01T07:46:42;13.32;;;8.10;;
52368;SDS011;38298;50.346;3.526;2023-03-01T07:49:08;16.35;;;8.65;;
52368;SDS011;38298;50.346;3.526;2023-03-01T07:51:34;18.85;;;8.70;;
52368;SDS011;38298;50.346;3.526;2023-03-01T07:54:00;14.18;;;8.32;;
52368;SDS011;38298;50.346;3.526;2023-03-01T07:56:26;14.38;;;8.77;;
52368;SDS011;38298;50.346;3.526;2023-03-01T07:58:52;16.80;;;8.68;;
52368;SDS011;38298;50.346;3.526;2023-03-01T08:01:19;14.43;;;8.75;;
52368;SDS011;38298;50.346;3.526;2023-03-01T08:03:45;15.15;;;8.85;;
52368;SDS011;38298;50.346;3.526;2023-03-01T08:06:12;16.77;;;8.88;;
52368;SDS011;38298;50.346;3.526;2023-03-01T08:08:39;15.10;;;8.77;;
52368;SDS011;38298;50.346;3.526;2023-03-01T08:11:06;19.10;;;8.57;;
52368;SDS011;38298;50.346;3.526;2023-03-01T08:13:33;14.32;;;8.15;;
52368;SDS011;38298;50.346;3.526;2023-03-01T08:16:05;18.05;;;8.65;;
52368;SDS011;38298;50.346;3.526;2023-03-01T08:18:32;16.13;;;9.57;;
52368;SDS011;38298;50.346;3.526;2023-03-01T08:21:02;16.88;;;8.93;;
52368;SDS011;38298;50.346;3.526;2023-03-01T08:23:28;16.65;;;9.00;;
52368;SDS011;38298;50.346;3.526;2023-03-01T08:25:55;17.17;;;8.73;;
52368;SDS011;38298;50.346;3.526;2023-03-01T08:28:21;15.18;;;8.52;;
52368;SDS011;38298;50.346;3.526;2023-03-01T08:30:47;16.70;;;9.18;;
52368;SDS011;38298;50.346;3.526;2023-03-01T08:33:13;15.40;;;8.35;;
52368;SDS011;38298;50.346;3.526;2023-03-01T08:35:39;17.17;;;8.95;;
52368;SDS011;38298;50.346;3.526;2023-03-01T08:38:05;16.55;;;8.50;;
52368;SDS011;38298;50.346;3.526;2023-03-01T08:40:31;17.05;;;8.95;;
52368;SDS011;38298;50.346;3.526;2023-03-01T08:42:57;14.63;;;8.55;;
52368;SDS011;38298;50.346;3.526;2023-03-01T08:45:23;15.40;;;9.35;;
52368;SDS011;38298;50.346;3.526;2023-03-01T08:47:51;17.90;;;9.10;;
52368;SDS011;38298;50.346;3.526;2023-03-01T08:50:18;16.83;;;9.10;;
52368;SDS011;38298;50.346;3.526;2023-03-01T08:52:44;15.10;;;9.20;;
52368;SDS011;38298;50.346;3.526;2023-03-01T08:55:10;15.40;;;9.10;;
52368;SDS011;38298;50.346;3.526;2023-03-01T08:57:36;18.83;;;9.45;;
52368;SDS011;38298;50.346;3.526;2023-03-01T09:00:02;14.00;;;9.15;;
52368;SDS011;38298;50.346;3.526;2023-03-01T09:04:59;14.98;;;9.38;;
52368;SDS011;38298;50.346;3.526;2023-03-01T09:07:26;17.10;;;9.60;;
52368;SDS011;38298;50.346;3.526;2023-03-01T09:09:55;19.00;;;9.73;;
52368;SDS011;38298;50.346;3.526;2023-03-01T09:12:21;16.48;;;10.32;;
52368;SDS011;38298;50.346;3.526;2023-03-01T09:14:47;20.90;;;10.18;;
52368;SDS011;38298;50.346;3.526;2023-03-01T09:17:13;18.83;;;9.90;;
52368;SDS011;38298;50.346;3.526;2023-03-01T09:19:39;16.90;;;9.02;;
52368;SDS011;38298;50.346;3.526;2023-03-01T09:22:05;15.77;;;9.43;;
52368;SDS011;38298;50.346;3.526;2023-03-01T09:24:31;11.88;;;8.60;;
52368;SDS011;38298;50.346;3.526;2023-03-01T09:26:57;18.77;;;8.77;;
52368;SDS011;38298;50.346;3.526;2023-03-01T09:29:23;19.95;;;9.68;;
52368;SDS011;38298;50.346;3.526;2023-03-01T09:31:50;14.52;;;8.52;;
52368;SDS011;38298;50.346;3.526;2023-03-01T09:34:20;19.42;;;9.38;;
52368;SDS011;38298;50.346;3.526;2023-03-01T09:36:48;18.83;;;9.52;;
52368;SDS011;38298;50.346;3.526;2023-03-01T09:39:15;15.00;;;9.27;;
52368;SDS011;38298;50.346;3.526;2023-03-01T09:42:01;13.57;;;8.90;;
52368;SDS011;38298;50.346;3.526;2023-03-01T09:44:31;13.80;;;8.68;;
52368;SDS011;38298;50.346;3.526;2023-03-01T09:47:00;15.27;;;9.30;;
52368;SDS011;38298;50.346;3.526;2023-03-01T09:49:30;13.80;;;8.57;;
52368;SDS011;38298;50.346;3.526;2023-03-01T09:51:59;18.30;;;8.65;;
52368;SDS011;38298;50.346;3.526;2023-03-01T09:54:25;17.42;;;8.75;;
52368;SDS011;38298;50.346;3.526;2023-03-01T09:56:53;15.15;;;8.98;;
52368;SDS011;38298;50.346;3.526;2023-03-01T10:02:30;16.15;;;8.50;;
52368;SDS011;38298;50.346;3.526;2023-03-01T10:05:09;14.07;;;8.60;;
52368;SDS011;38298;50.346;3.526;2023-03-01T10:10:05;21.33;;;8.70;;
52368;SDS011;38298;50.346;3.526;2023-03-01T10:12:36;17.45;;;9.00;;
52368;SDS011;38298;50.346;3.526;2023-03-01T10:23:08;17.42;;;8.93;;
52368;SDS011;38298;50.346;3.526;2023-03-01T10:29:02;14.30;;;7.90;;
52368;SDS011;38298;50.346;3.526;2023-03-01T10:31:01;18.30;;;8.90;;
52368;SDS011;38298;50.346;3.526;2023-03-01T10:33:32;13.65;;;8.27;;
52368;SDS011;38298;50.346;3.526;2023-03-01T10:36:01;14.98;;;8.02;;
52368;SDS011;38298;50.346;3.526;2023-03-01T10:38:27;17.17;;;7.93;;
52368;SDS011;38298;50.346;3.526;2023-03-01T10:41:00;18.52;;;8.15;;
52368;SDS011;38298;50.346;3.526;2023-03-01T10:43:47;18.70;;;8.98;;
52368;SDS011;38298;50.346;3.526;2023-03-01T10:46:27;16.50;;;8.65;;
52368;SDS011;38298;50.346;3.526;2023-03-01T10:49:07;15.93;;;9.00;;
52368;SDS011;38298;50.346;3.526;2023-03-01T10:51:37;16.60;;;8.32;;
52368;SDS011;38298;50.346;3.526;2023-03-01T10:54:04;16.02;;;7.55;;
52368;SDS011;38298;50.346;3.526;2023-03-01T10:56:40;13.80;;;8.73;;
52368;SDS011;38298;50.346;3.526;2023-03-01T10:59:19;15.67;;;8.60;;
52368;SDS011;38298;50.346;3.526;2023-03-01T11:01:46;14.15;;;7.68;;
52368;SDS011;38298;50.346;3.526;2023-03-01T11:04:23;14.43;;;8.63;;
52368;SDS011;38298;50.346;3.526;2023-03-01T11:06:57;13.52;;;7.57;;
52368;SDS011;38298;50.346;3.526;2023-03-01T11:09:24;10.63;;;7.18;;
52368;SDS011;38298;50.346;3.526;2023-03-01T11:11:54;14.82;;;8.65;;
52368;SDS011;38298;50.346;3.526;2023-03-01T11:14:21;13.55;;;8.45;;
52368;SDS011;38298;50.346;3.526;2023-03-01T11:16:48;14.50;;;7.88;;
52368;SDS011;38298;50.346;3.526;2023-03-01T11:19:16;12.00;;;7.78;;
52368;SDS011;38298;50.346;3.526;2023-03-01T11:21:54;13.10;;;7.47;;
52368;SDS011;38298;50.346;3.526;2023-03-01T11:24:23;11.10;;;7.63;;
52368;SDS011;38298;50.346;3.526;2023-03-01T11:26:54;16.00;;;8.52;;
52368;SDS011;38298;50.346;3.526;2023-03-01T11:31:57;15.77;;;8.73;;
52368;SDS011;38298;50.346;3.526;2023-03-01T11:34:34;23.67;;;8.07;;
52368;SDS011;38298;50.346;3.526;2023-03-01T11:37:07;12.85;;;7.63;;
52368;SDS011;38298;50.346;3.526;2023-03-01T11:39:47;12.63;;;7.78;;
52368;SDS011;38298;50.346;3.526;2023-03-01T11:42:37;15.32;;;7.50;;
52368;SDS011;38298;50.346;3.526;2023-03-01T11:45:02;15.95;;;8.93;;
52368;SDS011;38298;50.346;3.526;2023-03-01T11:52:52;14.82;;;7.55;;
52368;SDS011;38298;50.346;3.526;2023-03-01T11:58:03;12.68;;;7.38;;
52368;SDS011;38298;50.346;3.526;2023-03-01T12:03:20;9.90;;;6.88;;
52368;SDS011;38298;50.346;3.526;2023-03-01T12:32:10;16.35;;;8.02;;
52368;SDS011;38298;50.346;3.526;2023-03-01T12:39:47;12.52;;;7.03;;
52368;SDS011;38298;50.346;3.526;2023-03-01T12:50:26;10.75;;;7.25;;
52368;SDS011;38298;50.346;3.526;2023-03-01T12:52:56;11.60;;;7.53;;
52368;SDS011;38298;50.346;3.526;2023-03-01T12:55:38;12.20;;;6.95;;
52368;SDS011;38298;50.346;3.526;2023-03-01T12:58:16;12.30;;;7.50;;
52368;SDS011;38298;50.346;3.526;2023-03-01T13:11:32;12.18;;;7.35;;
52368;SDS011;38298;50.346;3.526;2023-03-01T13:16:44;12.95;;;7.45;;
52368;SDS011;38298;50.346;3.526;2023-03-01T13:21:43;12.32;;;6.97;;
52368;SDS011;38298;50.346;3.526;2023-03-01T13:34:51;11.35;;;7.35;;
52368;SDS011;38298;50.346;3.526;2023-03-01T13:37:22;11.45;;;6.68;;
52368;SDS011;38298;50.346;3.526;2023-03-01T13:39:48;15.38;;;6.88;;
52368;SDS011;38298;50.346;3.526;2023-03-01T13:44:56;7.40;;;5.03;;
52368;SDS011;38298;50.346;3.526;2023-03-01T13:47:22;8.38;;;5.43;;
52368;SDS011;38298;50.346;3.526;2023-03-01T13:49:56;7.00;;;5.07;;
52368;SDS011;38298;50.346;3.526;2023-03-01T13:54:48;4.90;;;4.35;;
52368;SDS011;38298;50.346;3.526;2023-03-01T13:57:18;7.35;;;4.13;;
52368;SDS011;38298;50.346;3.526;2023-03-01T13:59:46;6.95;;;4.03;;
52368;SDS011;38298;50.346;3.526;2023-03-01T14:02:13;7.15;;;3.42;;
52368;SDS011;38298;50.346;3.526;2023-03-01T14:04:39;4.72;;;3.35;;
52368;SDS011;38298;50.346;3.526;2023-03-01T14:07:18;7.65;;;3.47;;
52368;SDS011;38298;50.346;3.526;2023-03-01T14:09:45;4.38;;;3.63;;
52368;SDS011;38298;50.346;3.526;2023-03-01T14:12:24;7.18;;;3.60;;
52368;SDS011;38298;50.346;3.526;2023-03-01T14:17:48;4.25;;;3.35;;
52368;SDS011;38298;50.346;3.526;2023-03-01T14:22:42;5.13;;;3.05;;
52368;SDS011;38298;50.346;3.526;2023-03-01T14:27:51;6.20;;;2.63;;
52368;SDS011;38298;50.346;3.526;2023-03-01T14:35:20;2.58;;;2.38;;
52368;SDS011;38298;50.346;3.526;2023-03-01T14:37:46;6.00;;;3.08;;
52368;SDS011;38298;50.346;3.526;2023-03-01T14:40:28;7.50;;;2.67;;
52368;SDS011;38298;50.346;3.526;2023-03-01T14:42:55;4.80;;;3.00;;
52368;SDS011;38298;50.346;3.526;2023-03-01T14:45:22;5.22;;;3.10;;
52368;SDS011;38298;50.346;3.526;2023-03-01T14:47:49;3.65;;;2.63;;
52368;SDS011;38298;50.346;3.526;2023-03-01T14:52:48;5.10;;;2.80;;
52368;SDS011;38298;50.346;3.526;2023-03-01T14:55:17;3.00;;;2.70;;
52368;SDS011;38298;50.346;3.526;2023-03-01T14:57:45;2.70;;;2.50;;
52368;SDS011;38298;50.346;3.526;2023-03-01T15:00:17;4.80;;;2.40;;
52368;SDS011;38298;50.346;3.526;2023-03-01T15:02:44;4.72;;;2.78;;
52368;SDS011;38298;50.346;3.526;2023-03-01T15:05:13;3.72;;;2.97;;
52368;SDS011;38298;50.346;3.526;2023-03-01T15:07:40;5.07;;;2.67;;
52368;SDS011;38298;50.346;3.526;2023-03-01T15:10:13;3.40;;;2.80;;
52368;SDS011;38298;50.346;3.526;2023-03-01T15:12:41;4.35;;;2.72;;
52368;SDS011;38298;50.346;3.526;2023-03-01T15:15:53;6.15;;;2.50;;
52368;SDS011;38298;50.346;3.526;2023-03-01T15:17:59;4.57;;;2.70;;
52368;SDS011;38298;50.346;3.526;2023-03-01T15:20:25;4.85;;;2.40;;
52368;SDS011;38298;50.346;3.526;2023-03-01T15:22:54;3.10;;;2.65;;
52368;SDS011;38298;50.346;3.526;2023-03-01T15:25:25;3.90;;;2.67;;
52368;SDS011;38298;50.346;3.526;2023-03-01T15:27:52;4.82;;;2.70;;
52368;SDS011;38298;50.346;3.526;2023-03-01T15:30:26;3.28;;;2.50;;
52368;SDS011;38298;50.346;3.526;2023-03-01T15:35:44;4.38;;;2.85;;
52368;SDS011;38298;50.346;3.526;2023-03-01T15:40:51;6.57;;;3.03;;
52368;SDS011;38298;50.346;3.526;2023-03-01T15:43:40;4.32;;;2.97;;
52368;SDS011;38298;50.346;3.526;2023-03-01T15:46:44;8.82;;;2.70;;
52368;SDS011;38298;50.346;3.526;2023-03-01T15:49:00;3.63;;;2.85;;
52368;SDS011;38298;50.346;3.526;2023-03-01T15:51:35;3.00;;;2.70;;
52368;SDS011;38298;50.346;3.526;2023-03-01T15:54:06;3.22;;;2.80;;
52368;SDS011;38298;50.346;3.526;2023-03-01T15:56:33;3.00;;;2.70;;
52368;SDS011;38298;50.346;3.526;2023-03-01T15:59:00;3.17;;;2.88;;
52368;SDS011;38298;50.346;3.526;2023-03-01T16:01:27;4.82;;;3.30;;
52368;SDS011;38298;50.346;3.526;2023-03-01T16:03:53;4.40;;;3.15;;
52368;SDS011;38298;50.346;3.526;2023-03-01T16:06:19;4.15;;;3.15;;
52368;SDS011;38298;50.346;3.526;2023-03-01T16:08:45;6.47;;;3.38;;
52368;SDS011;38298;50.346;3.526;2023-03-01T16:11:18;4.13;;;3.72;;
52368;SDS011;38298;50.346;3.526;2023-03-01T16:13:45;4.78;;;4.30;;
52368;SDS011;38298;50.346;3.526;2023-03-01T16:16:11;5.32;;;4.40;;
52368;SDS011;38298;50.346;3.526;2023-03-01T16:18:40;10.95;;;4.80;;
52368;SDS011;38298;50.346;3.526;2023-03-01T16:21:06;6.38;;;5.07;;
52368;SDS011;38298;50.346;3.526;2023-03-01T16:23:32;7.40;;;5.00;;
52368;SDS011;38298;50.346;3.526;2023-03-01T16:25:59;7.57;;;5.53;;
52368;SDS011;38298;50.346;3.526;2023-03-01T16:28:25;9.15;;;5.75;;
52368;SDS011;38298;50.346;3.526;2023-03-01T16:30:51;10.18;;;6.05;;
52368;SDS011;38298;50.346;3.526;2023-03-01T16:33:17;6.82;;;5.10;;
52368;SDS011;38298;50.346;3.526;2023-03-01T16:35:43;9.20;;;5.20;;
52368;SDS011;38298;50.346;3.526;2023-03-01T16:38:10;9.13;;;5.47;;
52368;SDS011;38298;50.346;3.526;2023-03-01T16:40:36;7.88;;;5.50;;
52368;SDS011;38298;50.346;3.526;2023-03-01T16:43:02;12.02;;;5.70;;
52368;SDS011;38298;50.346;3.526;2023-03-01T16:45:32;10.70;;;6.40;;
52368;SDS011;38298;50.346;3.526;2023-03-01T16:48:00;14.60;;;7.00;;
52368;SDS011;38298;50.346;3.526;2023-03-01T16:50:26;8.13;;;5.82;;
52368;SDS011;38298;50.346;3.526;2023-03-01T16:52:52;12.02;;;6.32;;
52368;SDS011;38298;50.346;3.526;2023-03-01T16:55:18;11.02;;;6.55;;
52368;SDS011;38298;50.346;3.526;2023-03-01T16:57:44;11.05;;;6.28;;
52368;SDS011;38298;50.346;3.526;2023-03-01T17:00:11;15.70;;;7.47;;
52368;SDS011;38298;50.346;3.526;2023-03-01T17:02:38;11.05;;;7.20;;
52368;SDS011;38298;50.346;3.526;2023-03-01T17:05:04;13.32;;;6.78;;
52368;SDS011;38298;50.346;3.526;2023-03-01T17:07:31;14.18;;;6.50;;
52368;SDS011;38298;50.346;3.526;2023-03-01T17:10:01;11.18;;;7.25;;